sensor_id;sensor_type;location;lat;lon;timestamp;temperature;humidity
16402;DHT22;8310;44.626;11.176;2024-01-15T00:02:05;3.40;68.30
16402;DHT22;8310;44.626;11.176;2024-01-15T00:04:37;3.40;68.20
16402;DHT22;8310;44.626;11.176;2024-01-15T00:07:05;3.40;68.20
16402;DHT22;8310;44.626;11.176;2024-01-15T00:09:33;3.40;68.20
16402;DHT22;8310;44.626;11.176;2024-01-15T00:12:01;3.40;68.10
16402;DHT22;8310;44.626;11.176;2024-01-15T00:14:29;3.40;68.20
16402;DHT22;8310;44.626;11.176;2024-01-15T00:16:56;3.40;68.20
16402;DHT22;8310;44.626;11.176;2024-01-15T00:19:25;3.40;68.30
16402;DHT22;8310;44.626;11.176;2024-01-15T00:21:53;3.40;68.40
16402;DHT22;8310;44.626;11.176;2024-01-15T00:24:21;3.40;68.20
16402;DHT22;8310;44.626;11.176;2024-01-15T00:26:49;3.40;68.30
16402;DHT22;8310;44.626;11.176;2024-01-15T00:29:16;3.40;68.30
16402;DHT22;8310;44.626;11.176;2024-01-15T00:31:44;3.40;68.40
16402;DHT22;8310;44.626;11.176;2024-01-15T00:34:12;3.40;68.40
16402;DHT22;8310;44.626;11.176;2024-01-15T00:36:42;3.40;68.30
16402;DHT22;8310;44.626;11.176;2024-01-15T00:39:09;3.40;68.20
16402;DHT22;8310;44.626;11.176;2024-01-15T00:41:37;3.40;68.20
16402;DHT22;8310;44.626;11.176;2024-01-15T00:44:04;3.40;68.20
16402;DHT22;8310;44.626;11.176;2024-01-15T00:46:33;3.40;68.20
16402;DHT22;8310;44.626;11.176;2024-01-15T00:49:00;3.40;68.20
16402;DHT22;8310;44.626;11.176;2024-01-15T00:51:28;3.40;68.30
16402;DHT22;8310;44.626;11.176;2024-01-15T00:53:58;3.40;68.40
16402;DHT22;8310;44.626;11.176;2024-01-15T00:56:26;3.40;68.40
16402;DHT22;8310;44.626;11.176;2024-01-15T00:58:54;3.40;68.40
16402;DHT22;8310;44.626;11.176;2024-01-15T01:01:22;3.40;68.40
16402;DHT22;8310;44.626;11.176;2024-01-15T01:03:51;3.40;68.10
16402;DHT22;8310;44.626;11.176;2024-01-15T01:06:19;3.40;68.10
16402;DHT22;8310;44.626;11.176;2024-01-15T01:08:46;3.30;68.00
16402;DHT22;8310;44.626;11.176;2024-01-15T01:11:15;3.30;67.90
16402;DHT22;8310;44.626;11.176;2024-01-15T01:13:42;3.30;68.10
16402;DHT22;8310;44.626;11.176;2024-01-15T01:16:10;3.30;68.20
16402;DHT22;8310;44.626;11.176;2024-01-15T01:18:38;3.20;68.20
16402;DHT22;8310;44.626;11.176;2024-01-15T01:21:06;3.20;68.40
16402;DHT22;8310;44.626;11.176;2024-01-15T01:23:34;3.30;68.30
16402;DHT22;8310;44.626;11.176;2024-01-15T01:26:02;3.20;68.20
16402;DHT22;8310;44.626;11.176;2024-01-15T01:28:31;3.20;68.10
16402;DHT22;8310;44.626;11.176;2024-01-15T01:31:00;3.10;68.00
16402;DHT22;8310;44.626;11.176;2024-01-15T01:33:28;3.10;68.10
16402;DHT22;8310;44.626;11.176;2024-01-15T01:35:56;3.10;68.30
16402;DHT22;8310;44.626;11.176;2024-01-15T01:38:24;3.10;68.40
16402;DHT22;8310;44.626;11.176;2024-01-15T01:40:52;3.10;68.40
16402;DHT22;8310;44.626;11.176;2024-01-15T01:43:19;3.10;68.50
16402;DHT22;8310;44.626;11.176;2024-01-15T01:45:52;3.10;68.50
16402;DHT22;8310;44.626;11.176;2024-01-15T01:48:20;3.10;68.60
16402;DHT22;8310;44.626;11.176;2024-01-15T01:50:48;3.20;68.70
16402;DHT22;8310;44.626;11.176;2024-01-15T01:53:16;3.20;68.70
16402;DHT22;8310;44.626;11.176;2024-01-15T01:55:44;3.20;68.60
16402;DHT22;8310;44.626;11.176;2024-01-15T01:58:12;3.20;68.80
16402;DHT22;8310;44.626;11.176;2024-01-15T02:00:40;3.30;68.80
16402;DHT22;8310;44.626;11.176;2024-01-15T02:03:13;3.30;68.80
16402;DHT22;8310;44.626;11.176;2024-01-15T02:05:43;3.40;69.00
16402;DHT22;8310;44.626;11.176;2024-01-15T02:08:10;3.50;69.00
16402;DHT22;8310;44.626;11.176;2024-01-15T02:10:37;3.50;69.00
16402;DHT22;8310;44.626;11.176;2024-01-15T02:13:05;3.50;68.90
16402;DHT22;8310;44.626;11.176;2024-01-15T02:15:33;3.60;68.90
16402;DHT22;8310;44.626;11.176;2024-01-15T02:18:01;3.60;69.00
16402;DHT22;8310;44.626;11.176;2024-01-15T02:20:31;3.60;68.90
16402;DHT22;8310;44.626;11.176;2024-01-15T02:23:11;3.60;68.80
16402;DHT22;8310;44.626;11.176;2024-01-15T02:25:40;3.60;69.00
16402;DHT22;8310;44.626;11.176;2024-01-15T02:28:10;3.60;68.90
16402;DHT22;8310;44.626;11.176;2024-01-15T02:30:39;3.60;69.00
16402;DHT22;8310;44.626;11.176;2024-01-15T02:33:07;3.60;69.00
16402;DHT22;8310;44.626;11.176;2024-01-15T02:35:35;3.60;69.00
16402;DHT22;8310;44.626;11.176;2024-01-15T02:38:04;3.60;69.00
16402;DHT22;8310;44.626;11.176;2024-01-15T02:40:34;3.60;69.10
16402;DHT22;8310;44.626;11.176;2024-01-15T02:43:02;3.60;69.10
16402;DHT22;8310;44.626;11.176;2024-01-15T02:45:30;3.60;69.10
16402;DHT22;8310;44.626;11.176;2024-01-15T02:47:57;3.60;69.10
16402;DHT22;8310;44.626;11.176;2024-01-15T02:50:25;3.60;69.10
16402;DHT22;8310;44.626;11.176;2024-01-15T02:52:53;3.60;69.10
16402;DHT22;8310;44.626;11.176;2024-01-15T02:55:21;3.60;69.10
16402;DHT22;8310;44.626;11.176;2024-01-15T02:57:50;3.60;69.10
16402;DHT22;8310;44.626;11.176;2024-01-15T03:00:18;3.60;69.20
16402;DHT22;8310;44.626;11.176;2024-01-15T03:02:45;3.60;69.20
16402;DHT22;8310;44.626;11.176;2024-01-15T03:05:14;3.60;69.20
16402;DHT22;8310;44.626;11.176;2024-01-15T03:07:41;3.60;69.20
16402;DHT22;8310;44.626;11.176;2024-01-15T03:10:09;3.60;69.20
16402;DHT22;8310;44.626;11.176;2024-01-15T03:12:37;3.60;69.20
16402;DHT22;8310;44.626;11.176;2024-01-15T03:15:08;3.60;69.20
16402;DHT22;8310;44.626;11.176;2024-01-15T03:17:36;3.60;69.30
16402;DHT22;8310;44.626;11.176;2024-01-15T03:20:05;3.60;69.30
16402;DHT22;8310;44.626;11.176;2024-01-15T03:22:35;3.60;69.20
16402;DHT22;8310;44.626;11.176;2024-01-15T03:25:03;3.60;69.10
16402;DHT22;8310;44.626;11.176;2024-01-15T03:27:30;3.60;69.20
16402;DHT22;8310;44.626;11.176;2024-01-15T03:29:58;3.60;69.20
16402;DHT22;8310;44.626;11.176;2024-01-15T03:32:27;3.60;69.10
16402;DHT22;8310;44.626;11.176;2024-01-15T03:34:55;3.60;69.10
16402;DHT22;8310;44.626;11.176;2024-01-15T03:37:23;3.60;69.00
16402;DHT22;8310;44.626;11.176;2024-01-15T03:39:51;3.50;69.10
16402;DHT22;8310;44.626;11.176;2024-01-15T03:42:19;3.50;69.10
16402;DHT22;8310;44.626;11.176;2024-01-15T03:44:48;3.50;69.00
16402;DHT22;8310;44.626;11.176;2024-01-15T03:47:17;3.50;69.00
16402;DHT22;8310;44.626;11.176;2024-01-15T03:49:49;3.50;69.00
16402;DHT22;8310;44.626;11.176;2024-01-15T03:52:17;3.60;69.10
16402;DHT22;8310;44.626;11.176;2024-01-15T03:54:44;3.50;69.10
16402;DHT22;8310;44.626;11.176;2024-01-15T03:57:13;3.60;69.30
16402;DHT22;8310;44.626;11.176;2024-01-15T03:59:41;3.60;69.30
16402;DHT22;8310;44.626;11.176;2024-01-15T04:02:08;3.60;69.30
16402;DHT22;8310;44.626;11.176;2024-01-15T04:04:35;3.60;69.40
16402;DHT22;8310;44.626;11.176;2024-01-15T04:07:05;3.70;69.40
16402;DHT22;8310;44.626;11.176;2024-01-15T04:09:32;3.70;69.50
16402;DHT22;8310;44.626;11.176;2024-01-15T04:12:00;3.70;69.50
16402;DHT22;8310;44.626;11.176;2024-01-15T04:14:28;3.80;69.60
16402;DHT22;8310;44.626;11.176;2024-01-15T04:16:59;3.90;69.70
16402;DHT22;8310;44.626;11.176;2024-01-15T04:19:26;3.90;69.70
16402;DHT22;8310;44.626;11.176;2024-01-15T04:21:54;4.00;69.70
16402;DHT22;8310;44.626;11.176;2024-01-15T04:24:24;4.00;69.70
16402;DHT22;8310;44.626;11.176;2024-01-15T04:26:51;4.10;69.70
16402;DHT22;8310;44.626;11.176;2024-01-15T04:29:19;4.10;69.70
16402;DHT22;8310;44.626;11.176;2024-01-15T04:31:46;4.10;69.60
16402;DHT22;8310;44.626;11.176;2024-01-15T04:34:14;4.20;69.70
16402;DHT22;8310;44.626;11.176;2024-01-15T04:36:42;4.20;69.70
16402;DHT22;8310;44.626;11.176;2024-01-15T04:39:10;4.20;69.70
16402;DHT22;8310;44.626;11.176;2024-01-15T04:41:39;4.20;69.70
16402;DHT22;8310;44.626;11.176;2024-01-15T04:44:10;4.20;69.70
16402;DHT22;8310;44.626;11.176;2024-01-15T04:46:38;4.30;69.80
16402;DHT22;8310;44.626;11.176;2024-01-15T04:49:05;4.30;69.70
16402;DHT22;8310;44.626;11.176;2024-01-15T04:51:33;4.30;69.70
16402;DHT22;8310;44.626;11.176;2024-01-15T04:54:02;4.30;69.80
16402;DHT22;8310;44.626;11.176;2024-01-15T04:56:29;4.30;69.80
16402;DHT22;8310;44.626;11.176;2024-01-15T04:58:59;4.30;69.80
16402;DHT22;8310;44.626;11.176;2024-01-15T05:01:30;4.40;69.80
16402;DHT22;8310;44.626;11.176;2024-01-15T05:03:58;4.40;69.80
16402;DHT22;8310;44.626;11.176;2024-01-15T05:06:26;4.40;69.90
16402;DHT22;8310;44.626;11.176;2024-01-15T05:08:54;4.40;69.80
16402;DHT22;8310;44.626;11.176;2024-01-15T05:11:21;4.40;69.70
16402;DHT22;8310;44.626;11.176;2024-01-15T05:13:49;4.40;69.80
16402;DHT22;8310;44.626;11.176;2024-01-15T05:16:19;4.40;69.90
16402;DHT22;8310;44.626;11.176;2024-01-15T05:18:46;4.40;69.90
16402;DHT22;8310;44.626;11.176;2024-01-15T05:21:14;4.50;70.00
16402;DHT22;8310;44.626;11.176;2024-01-15T05:23:42;4.50;70.00
16402;DHT22;8310;44.626;11.176;2024-01-15T05:26:09;4.50;70.00
16402;DHT22;8310;44.626;11.176;2024-01-15T05:28:36;4.50;70.10
16402;DHT22;8310;44.626;11.176;2024-01-15T05:31:03;4.50;70.00
16402;DHT22;8310;44.626;11.176;2024-01-15T05:33:33;4.50;70.00
16402;DHT22;8310;44.626;11.176;2024-01-15T05:36:00;4.50;70.00
16402;DHT22;8310;44.626;11.176;2024-01-15T05:38:28;4.60;70.00
16402;DHT22;8310;44.626;11.176;2024-01-15T05:40:56;4.60;70.00
16402;DHT22;8310;44.626;11.176;2024-01-15T05:43:24;4.60;70.00
16402;DHT22;8310;44.626;11.176;2024-01-15T05:45:51;4.60;70.00
16402;DHT22;8310;44.626;11.176;2024-01-15T05:48:18;4.60;70.00
16402;DHT22;8310;44.626;11.176;2024-01-15T05:50:48;4.60;70.00
16402;DHT22;8310;44.626;11.176;2024-01-15T05:53:16;4.60;70.00
16402;DHT22;8310;44.626;11.176;2024-01-15T05:55:43;4.60;70.00
16402;DHT22;8310;44.626;11.176;2024-01-15T05:58:11;4.60;70.00
16402;DHT22;8310;44.626;11.176;2024-01-15T06:00:39;4.60;70.00
16402;DHT22;8310;44.626;11.176;2024-01-15T06:03:07;4.60;70.00
16402;DHT22;8310;44.626;11.176;2024-01-15T06:05:34;4.60;70.00
16402;DHT22;8310;44.626;11.176;2024-01-15T06:08:04;4.60;70.00
16402;DHT22;8310;44.626;11.176;2024-01-15T06:10:31;4.50;69.90
16402;DHT22;8310;44.626;11.176;2024-01-15T06:12:59;4.50;70.00
16402;DHT22;8310;44.626;11.176;2024-01-15T06:15:26;4.50;70.00
16402;DHT22;8310;44.626;11.176;2024-01-15T06:17:54;4.50;70.00
16402;DHT22;8310;44.626;11.176;2024-01-15T06:20:21;4.50;70.10
16402;DHT22;8310;44.626;11.176;2024-01-15T06:22:48;4.40;70.10
16402;DHT22;8310;44.626;11.176;2024-01-15T06:25:17;4.40;70.10
16402;DHT22;8310;44.626;11.176;2024-01-15T06:27:45;4.40;70.10
16402;DHT22;8310;44.626;11.176;2024-01-15T06:30:14;4.40;70.10
16402;DHT22;8310;44.626;11.176;2024-01-15T06:32:41;4.40;70.10
16402;DHT22;8310;44.626;11.176;2024-01-15T06:35:09;4.40;70.20
16402;DHT22;8310;44.626;11.176;2024-01-15T06:37:37;4.40;70.10
16402;DHT22;8310;44.626;11.176;2024-01-15T06:40:06;4.40;70.20
16402;DHT22;8310;44.626;11.176;2024-01-15T06:42:35;4.40;70.20
16402;DHT22;8310;44.626;11.176;2024-01-15T06:45:03;4.40;70.00
16402;DHT22;8310;44.626;11.176;2024-01-15T06:47:32;4.40;70.00
16402;DHT22;8310;44.626;11.176;2024-01-15T06:50:00;4.40;70.10
16402;DHT22;8310;44.626;11.176;2024-01-15T06:52:28;4.40;70.20
16402;DHT22;8310;44.626;11.176;2024-01-15T06:54:56;4.40;70.30
16402;DHT22;8310;44.626;11.176;2024-01-15T06:57:24;4.40;70.30
16402;DHT22;8310;44.626;11.176;2024-01-15T06:59:54;4.40;70.20
16402;DHT22;8310;44.626;11.176;2024-01-15T07:02:21;4.40;70.20
16402;DHT22;8310;44.626;11.176;2024-01-15T07:04:48;4.30;70.10
16402;DHT22;8310;44.626;11.176;2024-01-15T07:07:17;4.30;70.30
16402;DHT22;8310;44.626;11.176;2024-01-15T07:09:44;4.30;70.30
16402;DHT22;8310;44.626;11.176;2024-01-15T07:12:12;4.30;70.30
16402;DHT22;8310;44.626;11.176;2024-01-15T07:14:40;4.30;70.30
16402;DHT22;8310;44.626;11.176;2024-01-15T07:17:09;4.30;70.40
16402;DHT22;8310;44.626;11.176;2024-01-15T07:19:37;4.30;71.10
16402;DHT22;8310;44.626;11.176;2024-01-15T07:22:04;4.30;70.50
16402;DHT22;8310;44.626;11.176;2024-01-15T07:24:32;4.30;70.60
16402;DHT22;8310;44.626;11.176;2024-01-15T07:27:01;4.30;70.60
16402;DHT22;8310;44.626;11.176;2024-01-15T07:29:30;4.30;70.70
16402;DHT22;8310;44.626;11.176;2024-01-15T07:31:59;4.40;70.70
16402;DHT22;8310;44.626;11.176;2024-01-15T07:34:28;4.40;70.70
16402;DHT22;8310;44.626;11.176;2024-01-15T07:36:57;4.40;70.70
16402;DHT22;8310;44.626;11.176;2024-01-15T07:39:25;4.50;70.80
16402;DHT22;8310;44.626;11.176;2024-01-15T07:41:54;4.50;70.70
16402;DHT22;8310;44.626;11.176;2024-01-15T07:44:21;4.60;70.80
16402;DHT22;8310;44.626;11.176;2024-01-15T07:46:49;4.60;70.80
16402;DHT22;8310;44.626;11.176;2024-01-15T07:49:17;4.60;70.70
16402;DHT22;8310;44.626;11.176;2024-01-15T07:51:46;4.70;70.70
16402;DHT22;8310;44.626;11.176;2024-01-15T07:54:15;4.70;70.80
16402;DHT22;8310;44.626;11.176;2024-01-15T07:56:56;4.70;70.70
16402;DHT22;8310;44.626;11.176;2024-01-15T07:59:24;4.80;70.90
16402;DHT22;8310;44.626;11.176;2024-01-15T08:01:52;4.80;71.00
16402;DHT22;8310;44.626;11.176;2024-01-15T08:04:22;4.80;71.00
16402;DHT22;8310;44.626;11.176;2024-01-15T08:06:51;4.90;71.10
16402;DHT22;8310;44.626;11.176;2024-01-15T08:09:19;4.90;71.00
16402;DHT22;8310;44.626;11.176;2024-01-15T08:11:47;5.00;71.10
16402;DHT22;8310;44.626;11.176;2024-01-15T08:14:15;5.00;71.00
16402;DHT22;8310;44.626;11.176;2024-01-15T08:16:43;5.00;71.10
16402;DHT22;8310;44.626;11.176;2024-01-15T08:19:11;5.00;71.10
16402;DHT22;8310;44.626;11.176;2024-01-15T08:21:39;5.00;71.20
16402;DHT22;8310;44.626;11.176;2024-01-15T08:24:09;5.10;71.30
16402;DHT22;8310;44.626;11.176;2024-01-15T08:26:36;5.10;71.30
16402;DHT22;8310;44.626;11.176;2024-01-15T08:29:04;5.20;71.50
16402;DHT22;8310;44.626;11.176;2024-01-15T08:31:35;5.20;71.50
16402;DHT22;8310;44.626;11.176;2024-01-15T08:34:03;5.30;71.60
16402;DHT22;8310;44.626;11.176;2024-01-15T08:36:31;5.30;71.60
16402;DHT22;8310;44.626;11.176;2024-01-15T08:39:00;5.40;71.60
16402;DHT22;8310;44.626;11.176;2024-01-15T08:41:31;5.40;71.60
16402;DHT22;8310;44.626;11.176;2024-01-15T08:43:59;5.50;71.60
16402;DHT22;8310;44.626;11.176;2024-01-15T08:46:26;5.50;71.70
16402;DHT22;8310;44.626;11.176;2024-01-15T08:48:54;5.60;71.90
16402;DHT22;8310;44.626;11.176;2024-01-15T08:51:22;5.60;71.90
16402;DHT22;8310;44.626;11.176;2024-01-15T08:53:49;5.70;72.00
16402;DHT22;8310;44.626;11.176;2024-01-15T08:56:18;5.70;72.00
16402;DHT22;8310;44.626;11.176;2024-01-15T08:58:47;5.80;72.00
16402;DHT22;8310;44.626;11.176;2024-01-15T09:01:15;5.90;72.20
16402;DHT22;8310;44.626;11.176;2024-01-15T09:03:44;6.00;72.20
16402;DHT22;8310;44.626;11.176;2024-01-15T09:06:12;6.00;72.20
16402;DHT22;8310;44.626;11.176;2024-01-15T09:08:40;6.10;72.20
16402;DHT22;8310;44.626;11.176;2024-01-15T09:11:07;6.10;72.10
16402;DHT22;8310;44.626;11.176;2024-01-15T09:13:35;6.10;72.10
16402;DHT22;8310;44.626;11.176;2024-01-15T09:16:06;6.10;72.10
16402;DHT22;8310;44.626;11.176;2024-01-15T09:18:34;6.10;72.10
16402;DHT22;8310;44.626;11.176;2024-01-15T09:21:03;6.10;72.10
16402;DHT22;8310;44.626;11.176;2024-01-15T09:23:32;6.20;72.20
16402;DHT22;8310;44.626;11.176;2024-01-15T09:25:59;6.20;72.30
16402;DHT22;8310;44.626;11.176;2024-01-15T09:28:27;6.20;72.30
16402;DHT22;8310;44.626;11.176;2024-01-15T09:30:55;6.30;72.40
16402;DHT22;8310;44.626;11.176;2024-01-15T09:33:24;6.40;72.70
16402;DHT22;8310;44.626;11.176;2024-01-15T09:35:52;6.40;72.70
16402;DHT22;8310;44.626;11.176;2024-01-15T09:38:20;6.50;72.80
16402;DHT22;8310;44.626;11.176;2024-01-15T09:40:48;6.60;73.00
16402;DHT22;8310;44.626;11.176;2024-01-15T09:43:16;6.70;73.90
16402;DHT22;8310;44.626;11.176;2024-01-15T09:45:47;6.80;73.30
16402;DHT22;8310;44.626;11.176;2024-01-15T09:48:16;6.90;73.80
16402;DHT22;8310;44.626;11.176;2024-01-15T09:50:45;7.00;74.00
16402;DHT22;8310;44.626;11.176;2024-01-15T09:53:13;7.20;74.40
16402;DHT22;8310;44.626;11.176;2024-01-15T09:55:42;7.30;74.50
16402;DHT22;8310;44.626;11.176;2024-01-15T09:58:10;7.40;74.70
16402;DHT22;8310;44.626;11.176;2024-01-15T10:00:39;7.60;75.00
16402;DHT22;8310;44.626;11.176;2024-01-15T10:03:10;7.70;75.10
16402;DHT22;8310;44.626;11.176;2024-01-15T10:05:38;7.90;75.50
16402;DHT22;8310;44.626;11.176;2024-01-15T10:08:08;8.20;75.70
16402;DHT22;8310;44.626;11.176;2024-01-15T10:10:36;8.40;75.80
16402;DHT22;8310;44.626;11.176;2024-01-15T10:13:04;8.50;75.70
16402;DHT22;8310;44.626;11.176;2024-01-15T10:15:34;8.70;75.60
16402;DHT22;8310;44.626;11.176;2024-01-15T10:18:02;8.80;75.50
16402;DHT22;8310;44.626;11.176;2024-01-15T10:20:32;8.80;75.30
16402;DHT22;8310;44.626;11.176;2024-01-15T10:23:00;9.00;75.80
16402;DHT22;8310;44.626;11.176;2024-01-15T10:25:29;9.20;76.10
16402;DHT22;8310;44.626;11.176;2024-01-15T10:28:00;9.40;76.90
16402;DHT22;8310;44.626;11.176;2024-01-15T10:30:28;9.50;76.00
16402;DHT22;8310;44.626;11.176;2024-01-15T10:32:58;9.70;76.10
16402;DHT22;8310;44.626;11.176;2024-01-15T10:35:28;9.80;76.10
16402;DHT22;8310;44.626;11.176;2024-01-15T10:37:56;10.00;76.10
16402;DHT22;8310;44.626;11.176;2024-01-15T10:40:23;10.00;75.80
16402;DHT22;8310;44.626;11.176;2024-01-15T10:42:54;10.00;75.70
16402;DHT22;8310;44.626;11.176;2024-01-15T10:45:22;10.00;75.40
16402;DHT22;8310;44.626;11.176;2024-01-15T10:47:49;10.10;75.60
16402;DHT22;8310;44.626;11.176;2024-01-15T10:50:17;10.10;75.70
16402;DHT22;8310;44.626;11.176;2024-01-15T10:52:44;10.20;75.60
16402;DHT22;8310;44.626;11.176;2024-01-15T10:55:12;10.30;75.70
16402;DHT22;8310;44.626;11.176;2024-01-15T10:57:40;10.40;75.60
16402;DHT22;8310;44.626;11.176;2024-01-15T11:00:11;10.50;75.50
16402;DHT22;8310;44.626;11.176;2024-01-15T11:02:41;10.60;75.30
16402;DHT22;8310;44.626;11.176;2024-01-15T11:05:10;10.70;75.30
16402;DHT22;8310;44.626;11.176;2024-01-15T11:07:39;10.80;75.30
16402;DHT22;8310;44.626;11.176;2024-01-15T11:10:08;10.90;75.50
16402;DHT22;8310;44.626;11.176;2024-01-15T11:12:56;11.00;75.60
16402;DHT22;8310;44.626;11.176;2024-01-15T11:15:26;11.20;75.70
16402;DHT22;8310;44.626;11.176;2024-01-15T11:17:59;11.30;75.40
16402;DHT22;8310;44.626;11.176;2024-01-15T11:20:29;11.30;75.30
16402;DHT22;8310;44.626;11.176;2024-01-15T11:22:58;11.40;75.30
16402;DHT22;8310;44.626;11.176;2024-01-15T11:25:35;11.40;75.20
16402;DHT22;8310;44.626;11.176;2024-01-15T11:28:04;11.50;75.00
16402;DHT22;8310;44.626;11.176;2024-01-15T11:30:33;11.50;75.10
16402;DHT22;8310;44.626;11.176;2024-01-15T11:33:03;11.60;75.40
16402;DHT22;8310;44.626;11.176;2024-01-15T11:35:48;11.70;75.50
16402;DHT22;8310;44.626;11.176;2024-01-15T11:38:26;11.80;75.40
16402;DHT22;8310;44.626;11.176;2024-01-15T11:40:55;11.80;75.20
16402;DHT22;8310;44.626;11.176;2024-01-15T11:43:22;11.90;75.20
16402;DHT22;8310;44.626;11.176;2024-01-15T11:45:52;11.90;75.20
16402;DHT22;8310;44.626;11.176;2024-01-15T11:48:21;12.00;75.10
16402;DHT22;8310;44.626;11.176;2024-01-15T11:50:51;12.10;75.10
16402;DHT22;8310;44.626;11.176;2024-01-15T11:53:31;12.10;74.90
16402;DHT22;8310;44.626;11.176;2024-01-15T11:56:06;12.20;75.00
16402;DHT22;8310;44.626;11.176;2024-01-15T11:58:38;12.30;75.00
16402;DHT22;8310;44.626;11.176;2024-01-15T12:01:08;12.40;74.90
16402;DHT22;8310;44.626;11.176;2024-01-15T12:03:35;12.50;75.10
16402;DHT22;8310;44.626;11.176;2024-01-15T12:06:05;12.60;75.10
16402;DHT22;8310;44.626;11.176;2024-01-15T12:08:33;12.70;75.10
16402;DHT22;8310;44.626;11.176;2024-01-15T12:11:05;12.80;75.60
16402;DHT22;8310;44.626;11.176;2024-01-15T12:13:33;12.90;74.80
16402;DHT22;8310;44.626;11.176;2024-01-15T12:16:01;13.00;74.70
16402;DHT22;8310;44.626;11.176;2024-01-15T12:18:32;13.10;74.70
16402;DHT22;8310;44.626;11.176;2024-01-15T12:21:00;13.20;74.80
16402;DHT22;8310;44.626;11.176;2024-01-15T12:23:28;13.30;74.70
16402;DHT22;8310;44.626;11.176;2024-01-15T12:25:56;13.40;74.60
16402;DHT22;8310;44.626;11.176;2024-01-15T12:28:27;13.50;74.50
16402;DHT22;8310;44.626;11.176;2024-01-15T12:30:56;13.60;74.50
16402;DHT22;8310;44.626;11.176;2024-01-15T12:33:24;13.70;74.50
16402;DHT22;8310;44.626;11.176;2024-01-15T12:35:54;13.80;74.60
16402;DHT22;8310;44.626;11.176;2024-01-15T12:38:22;13.90;74.40
16402;DHT22;8310;44.626;11.176;2024-01-15T12:40:50;13.90;75.00
16402;DHT22;8310;44.626;11.176;2024-01-15T12:43:17;14.00;74.50
16402;DHT22;8310;44.626;11.176;2024-01-15T12:45:45;14.20;75.00
16402;DHT22;8310;44.626;11.176;2024-01-15T12:48:14;14.40;75.50
16402;DHT22;8310;44.626;11.176;2024-01-15T12:50:43;14.70;75.60
16402;DHT22;8310;44.626;11.176;2024-01-15T12:53:12;14.90;75.60
16402;DHT22;8310;44.626;11.176;2024-01-15T12:55:41;15.10;75.60
16402;DHT22;8310;44.626;11.176;2024-01-15T12:58:08;15.30;75.30
16402;DHT22;8310;44.626;11.176;2024-01-15T13:00:36;15.40;75.20
16402;DHT22;8310;44.626;11.176;2024-01-15T13:03:04;15.50;75.30
16402;DHT22;8310;44.626;11.176;2024-01-15T13:05:32;15.70;75.20
16402;DHT22;8310;44.626;11.176;2024-01-15T13:08:00;15.70;74.80
16402;DHT22;8310;44.626;11.176;2024-01-15T13:10:29;15.80;74.80
16402;DHT22;8310;44.626;11.176;2024-01-15T13:12:59;15.80;74.60
16402;DHT22;8310;44.626;11.176;2024-01-15T13:15:29;15.90;74.80
16402;DHT22;8310;44.626;11.176;2024-01-15T13:17:57;15.90;74.70
16402;DHT22;8310;44.626;11.176;2024-01-15T13:20:24;15.90;74.60
16402;DHT22;8310;44.626;11.176;2024-01-15T13:22:51;15.90;74.60
16402;DHT22;8310;44.626;11.176;2024-01-15T13:25:19;15.80;74.50
16402;DHT22;8310;44.626;11.176;2024-01-15T13:27:49;15.80;74.90
16402;DHT22;8310;44.626;11.176;2024-01-15T13:30:16;15.80;75.30
16402;DHT22;8310;44.626;11.176;2024-01-15T13:32:44;15.90;75.40
16402;DHT22;8310;44.626;11.176;2024-01-15T13:35:12;16.00;75.20
16402;DHT22;8310;44.626;11.176;2024-01-15T13:37:40;16.10;75.20
16402;DHT22;8310;44.626;11.176;2024-01-15T13:40:09;16.10;74.90
16402;DHT22;8310;44.626;11.176;2024-01-15T13:42:42;16.00;74.50
16402;DHT22;8310;44.626;11.176;2024-01-15T13:45:11;15.90;74.40
16402;DHT22;8310;44.626;11.176;2024-01-15T13:47:40;15.90;74.80
16402;DHT22;8310;44.626;11.176;2024-01-15T13:50:09;16.00;75.10
16402;DHT22;8310;44.626;11.176;2024-01-15T13:52:36;16.00;74.80
16402;DHT22;8310;44.626;11.176;2024-01-15T13:55:05;16.00;74.40
16402;DHT22;8310;44.626;11.176;2024-01-15T13:57:34;15.90;74.00
16402;DHT22;8310;44.626;11.176;2024-01-15T14:00:02;15.90;73.70
16402;DHT22;8310;44.626;11.176;2024-01-15T14:02:37;15.80;73.60
16402;DHT22;8310;44.626;11.176;2024-01-15T14:05:05;15.70;73.30
16402;DHT22;8310;44.626;11.176;2024-01-15T14:07:33;15.60;73.60
16402;DHT22;8310;44.626;11.176;2024-01-15T14:10:01;15.50;73.60
16402;DHT22;8310;44.626;11.176;2024-01-15T14:12:29;15.50;73.70
16402;DHT22;8310;44.626;11.176;2024-01-15T14:14:57;15.50;73.80
16402;DHT22;8310;44.626;11.176;2024-01-15T14:17:24;15.50;74.00
16402;DHT22;8310;44.626;11.176;2024-01-15T14:19:52;15.50;73.80
16402;DHT22;8310;44.626;11.176;2024-01-15T14:22:20;15.50;73.60
16402;DHT22;8310;44.626;11.176;2024-01-15T14:24:48;15.50;73.60
16402;DHT22;8310;44.626;11.176;2024-01-15T14:27:16;15.50;73.60
16402;DHT22;8310;44.626;11.176;2024-01-15T14:29:43;15.50;73.30
16402;DHT22;8310;44.626;11.176;2024-01-15T14:32:12;15.50;73.20
16402;DHT22;8310;44.626;11.176;2024-01-15T14:34:39;15.50;72.70
16402;DHT22;8310;44.626;11.176;2024-01-15T14:37:08;15.40;71.90
16402;DHT22;8310;44.626;11.176;2024-01-15T14:39:36;15.20;71.70
16402;DHT22;8310;44.626;11.176;2024-01-15T14:42:04;15.10;71.90
16402;DHT22;8310;44.626;11.176;2024-01-15T14:44:32;15.10;72.30
16402;DHT22;8310;44.626;11.176;2024-01-15T14:47:00;15.10;72.40
16402;DHT22;8310;44.626;11.176;2024-01-15T14:49:28;15.10;72.30
16402;DHT22;8310;44.626;11.176;2024-01-15T14:51:57;15.20;72.30
16402;DHT22;8310;44.626;11.176;2024-01-15T14:54:26;15.10;72.00
16402;DHT22;8310;44.626;11.176;2024-01-15T14:56:54;15.00;71.50
16402;DHT22;8310;44.626;11.176;2024-01-15T14:59:22;14.90;71.30
16402;DHT22;8310;44.626;11.176;2024-01-15T15:01:50;14.80;71.10
16402;DHT22;8310;44.626;11.176;2024-01-15T15:04:17;14.60;71.30
16402;DHT22;8310;44.626;11.176;2024-01-15T15:06:45;14.60;71.40
16402;DHT22;8310;44.626;11.176;2024-01-15T15:09:12;14.60;71.30
16402;DHT22;8310;44.626;11.176;2024-01-15T15:11:41;14.60;71.20
16402;DHT22;8310;44.626;11.176;2024-01-15T15:14:08;14.50;71.10
16402;DHT22;8310;44.626;11.176;2024-01-15T15:16:36;14.50;71.30
16402;DHT22;8310;44.626;11.176;2024-01-15T15:19:04;14.50;71.50
16402;DHT22;8310;44.626;11.176;2024-01-15T15:21:32;14.50;71.70
16402;DHT22;8310;44.626;11.176;2024-01-15T15:24:00;14.50;71.70
16402;DHT22;8310;44.626;11.176;2024-01-15T15:26:28;14.60;71.70
16402;DHT22;8310;44.626;11.176;2024-01-15T15:28:57;14.60;71.70
16402;DHT22;8310;44.626;11.176;2024-01-15T15:31:24;14.60;71.70
16402;DHT22;8310;44.626;11.176;2024-01-15T15:33:52;14.60;71.70
16402;DHT22;8310;44.626;11.176;2024-01-15T15:36:19;14.60;71.60
16402;DHT22;8310;44.626;11.176;2024-01-15T15:38:47;14.50;71.50
16402;DHT22;8310;44.626;11.176;2024-01-15T15:41:15;14.50;71.50
16402;DHT22;8310;44.626;11.176;2024-01-15T15:43:43;14.40;71.40
16402;DHT22;8310;44.626;11.176;2024-01-15T15:46:12;14.40;71.40
16402;DHT22;8310;44.626;11.176;2024-01-15T15:48:40;14.30;71.30